Time;durP1;ratioP1;P1;durP2;ratioP2;P2;SDS_P1;SDS_P2;PMS_P1;PMS_P2;Temp;Humidity;BMP_temperature;BMP_pressure;BME280_temperature;BME280_humidity;BME280_pressure;Samples;Min_cycle;Max_cycle;Signal;HPM_P1;HPM_P2
2021/05/21 00:01:34;;;;;;;;;;;;;;;8.76;100.00;97410.81;5084497;28;19939;-85
2021/05/21 00:04:06;;;;;;;;;;;;;;;8.85;100.00;97405.31;5040144;28;19978;-86
2021/05/21 00:06:33;;;;;;;;;;;;;;;8.83;100.00;97418.91;5055945;28;19925;-86
2021/05/21 00:09:00;;;;;;;;;;;;;;;8.84;100.00;97417.72;5056154;28;19925;-86
2021/05/21 00:11:27;;;;;;;;;;;;;;;8.79;100.00;97403.56;5055915;28;19956;-86
2021/05/21 00:13:54;;;;;;;;;;;;;;;8.79;100.00;97393.22;5039356;28;19925;-86
2021/05/21 00:16:21;;;;;;;;;;;;;;;8.79;100.00;97396.00;5039628;28;19929;-86
2021/05/21 00:18:51;;;;;;;;;;;;;;;8.87;100.00;97404.88;5055700;28;20384;-86
2021/05/21 00:21:19;;;;;;;;;;;;;;;8.81;100.00;97407.47;5056198;28;20320;-87
2021/05/21 00:23:46;;;;;;;;;;;;;;;8.84;100.00;97417.72;5039246;28;19929;-86
2021/05/21 00:26:13;;;;;;;;;;;;;;;8.85;100.00;97424.81;5055535;28;19925;-87
2021/05/21 00:28:40;;;;;;;;;;;;;;;8.87;100.00;97424.38;5056091;28;20015;-86
2021/05/21 00:31:07;;;;;;;;;;;;;;;8.85;100.00;97419.25;5071477;28;20403;-88
2021/05/21 00:33:34;;;;;;;;;;;;;;;8.88;100.00;97434.28;5051980;28;19925;-88
2021/05/21 00:36:06;;;;;;;;;;;;;;;8.97;100.00;97432.34;5040000;28;19936;-88
2021/05/21 00:38:33;;;;;;;;;;;;;;;8.93;100.00;97415.00;5047918;28;19925;-86
2021/05/21 00:41:00;;;;;;;;;;;;;;;8.92;100.00;97430.13;5063159;28;19924;-88
2021/05/21 00:43:28;;;;;;;;;;;;;;;8.88;100.00;97435.06;5055705;28;19925;-88
2021/05/21 00:45:59;;;;;;;;;;;;;;;8.83;100.00;97427.28;5039452;28;20015;-87
2021/05/21 00:48:26;;;;;;;;;;;;;;;8.93;100.00;97436.50;5006464;28;19935;-87
2021/05/21 00:50:53;;;;;;;;;;;;;;;8.92;100.00;97441.28;5055188;28;20428;-87
2021/05/21 00:53:21;;;;;;;;;;;;;;;8.96;100.00;97447.53;5056746;28;19925;-87
2021/05/21 00:55:49;;;;;;;;;;;;;;;8.92;100.00;97446.84;5075000;28;20387;-86
2021/05/21 00:58:16;;;;;;;;;;;;;;;8.95;100.00;97454.31;5058154;28;19935;-87
2021/05/21 01:00:43;;;;;;;;;;;;;;;8.93;100.00;97476.28;5055192;28;19931;-86
2021/05/21 01:03:11;;;;;;;;;;;;;;;8.90;100.00;97477.19;5053574;28;19925;-86
2021/05/21 01:05:38;;;;;;;;;;;;;;;8.87;100.00;97461.38;5038616;28;19999;-87
2021/05/21 01:08:05;;;;;;;;;;;;;;;8.93;100.00;97470.69;5053711;28;19925;-87
2021/05/21 01:10:32;;;;;;;;;;;;;;;8.84;100.00;97467.03;5055904;28;19925;-87
2021/05/21 01:12:59;;;;;;;;;;;;;;;8.81;100.00;97468.72;5038587;28;19925;-87
2021/05/21 01:15:26;;;;;;;;;;;;;;;8.75;100.00;97626.44;5069713;28;20295;-86
2021/05/21 01:17:53;;;;;;;;;;;;;;;8.81;100.00;97680.38;5078823;28;19929;-87
2021/05/21 01:20:21;;;;;;;;;;;;;;;8.79;100.00;97740.53;5057694;28;19931;-86
2021/05/21 01:22:48;;;;;;;;;;;;;;;8.72;100.00;97755.41;5063635;28;19925;-86
2021/05/21 01:25:15;;;;;;;;;;;;;;;8.87;100.00;97775.28;5071798;28;19931;-87
2021/05/21 01:27:43;;;;;;;;;;;;;;;8.81;100.00;97780.66;5074643;28;19947;-86
2021/05/21 01:30:10;;;;;;;;;;;;;;;8.82;100.00;97793.34;5058434;28;19924;-86
2021/05/21 01:32:37;;;;;;;;;;;;;;;8.86;100.00;97794.00;5029147;28;19924;-87
2021/05/21 01:35:05;;;;;;;;;;;;;;;8.82;100.00;97815.63;5060179;28;19928;-86
2021/05/21 01:37:33;;;;;;;;;;;;;;;8.92;100.00;97786.66;5055824;28;19925;-86
2021/05/21 01:40:00;;;;;;;;;;;;;;;8.98;100.00;97817.56;5037598;28;19974;-86
2021/05/21 01:42:28;;;;;;;;;;;;;;;8.94;100.00;97822.44;5054424;28;20019;-86
2021/05/21 01:44:55;;;;;;;;;;;;;;;9.01;100.00;97817.44;5065575;28;19924;-86
2021/05/21 01:47:23;;;;;;;;;;;;;;;8.99;100.00;97805.97;5056853;28;19960;-87
2021/05/21 01:49:51;;;;;;;;;;;;;;;8.93;100.00;97815.31;5054274;28;19925;-87
2021/05/21 01:52:18;;;;;;;;;;;;;;;8.96;100.00;97801.28;5053788;28;19940;-87
2021/05/21 01:54:45;;;;;;;;;;;;;;;8.95;100.00;97808.06;5074343;28;19924;-87
2021/05/21 01:57:13;;;;;;;;;;;;;;;9.01;100.00;97789.56;5059474;28;19925;-86
2021/05/21 01:59:41;;;;;;;;;;;;;;;9.03;100.00;97786.34;5060944;28;19931;-86
2021/05/21 02:02:11;;;;;;;;;;;;;;;9.00;100.00;97803.94;5047591;28;19967;-87
2021/05/21 02:04:39;;;;;;;;;;;;;;;8.91;100.00;97785.13;5053774;28;19925;-87
2021/05/21 02:07:12;;;;;;;;;;;;;;;8.87;100.00;97778.88;5053968;28;19931;-87
2021/05/21 02:09:58;;;;;;;;;;;;;;;8.97;100.00;97783.34;5053931;28;19925;-86
2021/05/21 02:12:26;;;;;;;;;;;;;;;9.00;100.00;97799.16;5020988;28;19925;-86
2021/05/21 02:14:54;;;;;;;;;;;;;;;9.01;100.00;97800.72;5053666;28;19928;-87
2021/05/21 02:17:21;;;;;;;;;;;;;;;9.02;100.00;97788.38;5054781;28;19925;-86
2021/05/21 02:19:48;;;;;;;;;;;;;;;9.04;100.00;97782.34;5036770;28;19982;-87
2021/05/21 02:22:19;;;;;;;;;;;;;;;9.04;100.00;97793.50;5053522;28;19956;-87
2021/05/21 02:24:46;;;;;;;;;;;;;;;9.04;100.00;97787.94;5070211;28;19925;-86
2021/05/21 02:27:14;;;;;;;;;;;;;;;9.00;100.00;97790.81;5050348;28;19929;-87
2021/05/21 02:29:41;;;;;;;;;;;;;;;9.09;100.00;97777.00;5052728;28;20046;-86
2021/05/21 02:32:08;;;;;;;;;;;;;;;9.10;100.00;97783.38;5036154;28;19925;-87
2021/05/21 02:34:36;;;;;;;;;;;;;;;9.08;100.00;97783.81;5053340;28;19970;-87
2021/05/21 02:37:03;;;;;;;;;;;;;;;9.07;100.00;97779.44;5052586;28;19924;-86
2021/05/21 02:39:30;;;;;;;;;;;;;;;9.06;100.00;97786.25;5054176;28;19932;-87
2021/05/21 02:41:57;;;;;;;;;;;;;;;9.08;100.00;97774.66;5069779;28;19928;-87
2021/05/21 02:44:25;;;;;;;;;;;;;;;9.12;100.00;97769.75;5052888;28;19931;-87
2021/05/21 02:46:52;;;;;;;;;;;;;;;9.10;100.00;97770.19;5036691;28;19925;-87
2021/05/21 02:49:20;;;;;;;;;;;;;;;9.14;100.00;97765.31;5036756;28;19932;-86
2021/05/21 02:51:51;;;;;;;;;;;;;;;9.14;100.00;97775.66;5052557;28;20046;-87
2021/05/21 02:54:19;;;;;;;;;;;;;;;9.09;100.00;97768.63;5053375;28;19924;-87
2021/05/21 02:56:46;;;;;;;;;;;;;;;9.05;100.00;97762.41;5052782;28;19960;-87
2021/05/21 02:59:14;;;;;;;;;;;;;;;9.10;100.00;97753.47;5036897;28;20391;-87
2021/05/21 03:01:41;;;;;;;;;;;;;;;9.12;100.00;97764.97;5052559;28;19971;-87
2021/05/21 03:04:09;;;;;;;;;;;;;;;9.08;100.00;97742.00;5069404;28;19924;-86
2021/05/21 03:06:36;;;;;;;;;;;;;;;9.09;100.00;97740.78;5052475;28;20391;-87
2021/05/21 03:09:04;;;;;;;;;;;;;;;9.13;100.00;97741.44;5036253;28;20368;-87
2021/05/21 03:11:31;;;;;;;;;;;;;;;9.08;100.00;97755.94;5036493;28;20023;-88
2021/05/21 03:13:58;;;;;;;;;;;;;;;9.11;100.00;97743.13;5052542;28;19929;-88
2021/05/21 03:16:25;;;;;;;;;;;;;;;9.09;100.00;97757.50;5036445;28;19932;-86
2021/05/21 03:18:52;;;;;;;;;;;;;;;9.09;100.00;97757.50;5052347;28;20092;-87
2021/05/21 03:21:19;;;;;;;;;;;;;;;9.10;100.00;97853.78;5019359;28;20291;-87
2021/05/21 03:23:47;;;;;;;;;;;;;;;9.08;100.00;97980.84;5019475;28;19924;-86
2021/05/21 03:26:14;;;;;;;;;;;;;;;9.11;100.00;97969.63;5035868;28;20016;-87
2021/05/21 03:28:41;;;;;;;;;;;;;;;9.13;100.00;97969.94;5052367;28;19925;-86
2021/05/21 03:31:08;;;;;;;;;;;;;;;9.16;100.00;97946.75;5035856;28;20050;-86
2021/05/21 03:33:36;;;;;;;;;;;;;;;9.15;100.00;97961.94;5036184;28;19932;-87
2021/05/21 03:36:04;;;;;;;;;;;;;;;9.19;100.00;97954.25;5051988;28;19925;-86
2021/05/21 03:38:31;;;;;;;;;;;;;;;9.22;100.00;97935.88;5036138;28;19932;-87
2021/05/21 03:40:59;;;;;;;;;;;;;;;9.21;100.00;97936.31;5060613;28;19979;-86
2021/05/21 03:43:26;;;;;;;;;;;;;;;9.23;100.00;97928.28;5035883;28;20011;-87
2021/05/21 03:45:53;;;;;;;;;;;;;;;9.22;100.00;97923.94;5050447;28;20019;-86
2021/05/21 03:48:20;;;;;;;;;;;;;;;9.18;100.00;97918.44;5073298;28;19931;-86
2021/05/21 03:50:48;;;;;;;;;;;;;;;9.18;100.00;97903.75;5059260;28;19929;-87
2021/05/21 03:53:16;;;;;;;;;;;;;;;9.18;100.00;97894.16;5035814;28;19925;-86
2021/05/21 03:55:43;;;;;;;;;;;;;;;9.19;100.00;97892.94;5036068;28;20284;-86
2021/05/21 03:58:10;;;;;;;;;;;;;;;9.20;100.00;97879.78;5019459;28;19925;-86
2021/05/21 04:00:37;;;;;;;;;;;;;;;9.21;100.00;97861.06;5062665;28;19924;-86
2021/05/21 04:03:07;;;;;;;;;;;;;;;9.18;100.00;97878.69;5071909;28;20288;-86
2021/05/21 04:05:35;;;;;;;;;;;;;;;9.18;100.00;97864.75;5063426;28;20285;-86
2021/05/21 04:08:02;;;;;;;;;;;;;;;9.19;100.00;97842.00;5054510;28;19931;-86
2021/05/21 04:10:29;;;;;;;;;;;;;;;9.14;100.00;97840.56;5073441;28;20753;-86
2021/05/21 04:12:56;;;;;;;;;;;;;;;9.15;100.00;97839.31;5055406;28;19928;-87
2021/05/21 04:15:24;;;;;;;;;;;;;;;9.14;100.00;97834.97;5089094;28;19924;-87
2021/05/21 04:17:51;;;;;;;;;;;;;;;9.15;100.00;97819.81;5088567;28;19972;-87
2021/05/21 04:20:18;;;;;;;;;;;;;;;9.14;100.00;97818.25;5053723;28;19929;-87
2021/05/21 04:22:45;;;;;;;;;;;;;;;9.06;100.00;97818.88;5062499;28;20022;-87
2021/05/21 04:25:13;;;;;;;;;;;;;;;9.06;100.00;97814.09;5072036;28;19925;-87
2021/05/21 04:27:40;;;;;;;;;;;;;;;9.06;100.00;97791.03;5088807;28;19924;-87
2021/05/21 04:30:07;;;;;;;;;;;;;;;9.06;100.00;97789.03;5055359;28;19928;-87
2021/05/21 04:32:35;;;;;;;;;;;;;;;9.06;100.00;97789.03;5064109;28;19932;-86
2021/05/21 04:35:03;;;;;;;;;;;;;;;9.11;100.00;97794.06;5049208;28;19928;-87
2021/05/21 04:37:30;;;;;;;;;;;;;;;9.09;100.00;97773.44;5071806;28;19967;-87
2021/05/21 04:39:58;;;;;;;;;;;;;;;9.05;100.00;97765.19;5060982;28;20054;-87
2021/05/21 04:42:39;;;;;;;;;;;;;;;9.06;100.00;97755.59;5053846;28;19932;-86
2021/05/21 04:45:07;;;;;;;;;;;;;;;9.06;100.00;97746.44;5022479;28;19924;-87
2021/05/21 04:47:34;;;;;;;;;;;;;;;9.03;100.00;97750.13;5038571;28;20395;-87
2021/05/21 04:50:03;;;;;;;;;;;;;;;9.06;100.00;97747.25;5039073;28;19929;-87
2021/05/21 04:52:30;;;;;;;;;;;;;;;9.10;100.00;97730.44;5022298;28;19925;-87
2021/05/21 04:54:57;;;;;;;;;;;;;;;9.01;100.00;97719.94;5056370;28;19932;-87
2021/05/21 04:57:25;;;;;;;;;;;;;;;9.02;100.00;97713.16;5038817;28;19931;-86
2021/05/21 04:59:52;;;;;;;;;;;;;;;8.97;100.00;97716.47;5019647;28;20020;-86
2021/05/21 05:02:20;;;;;;;;;;;;;;;8.97;100.00;97705.34;5055064;28;20399;-86
2021/05/21 05:04:47;;;;;;;;;;;;;;;8.94;100.00;97683.16;5038520;28;19947;-87
2021/05/21 05:07:14;;;;;;;;;;;;;;;8.88;100.00;97702.44;5054995;28;19925;-87
2021/05/21 05:09:41;;;;;;;;;;;;;;;8.87;100.00;97689.75;5038404;28;20012;-87
2021/05/21 05:12:08;;;;;;;;;;;;;;;8.79;100.00;97677.25;5039180;28;19975;-86
2021/05/21 05:14:35;;;;;;;;;;;;;;;8.76;100.00;97694.84;5054859;28;19924;-88
2021/05/21 05:17:02;;;;;;;;;;;;;;;8.77;100.00;97679.69;5054508;28;19925;-87
2021/05/21 05:19:29;;;;;;;;;;;;;;;8.81;100.00;97685.97;5054737;28;19931;-87
2021/05/21 05:21:57;;;;;;;;;;;;;;;8.84;100.00;97693.41;5054821;28;19932;-88
2021/05/21 05:24:24;;;;;;;;;;;;;;;8.78;100.00;97686.06;5037940;28;19924;-87
2021/05/21 05:26:52;;;;;;;;;;;;;;;8.81;100.00;97693.53;5055656;28;20319;-87
2021/05/21 05:29:19;;;;;;;;;;;;;;;8.80;100.00;97686.38;5055666;28;20306;-86
2021/05/21 05:31:47;;;;;;;;;;;;;;;8.81;100.00;97697.09;5035229;28;20372;-87
2021/05/21 05:34:14;;;;;;;;;;;;;;;8.79;100.00;97688.41;5053978;28;19978;-87
2021/05/21 05:36:41;;;;;;;;;;;;;;;8.81;100.00;97685.97;5053196;28;19932;-88
2021/05/21 05:39:09;;;;;;;;;;;;;;;8.83;100.00;97694.63;5019307;28;19925;-78
2021/05/21 05:41:36;;;;;;;;;;;;;;;8.78;100.00;97686.81;5053970;28;19925;-79
2021/05/21 05:44:06;;;;;;;;;;;;;;;8.83;100.00;97677.91;5056584;28;19951;-77
2021/05/21 05:46:34;;;;;;;;;;;;;;;8.82;100.00;97678.34;5040451;28;19929;-76
2021/05/21 05:49:01;;;;;;;;;;;;;;;8.80;100.00;97673.22;5048273;28;19936;-79
2021/05/21 05:51:28;;;;;;;;;;;;;;;8.79;100.00;97659.75;5031870;28;19948;-79
2021/05/21 05:53:56;;;;;;;;;;;;;;;8.80;100.00;97673.22;5048917;28;20038;-75
2021/05/21 05:56:23;;;;;;;;;;;;;;;8.80;100.00;97667.66;5049701;28;20006;-76
2021/05/21 05:58:50;;;;;;;;;;;;;;;8.81;100.00;97658.09;5051245;28;20309;-75
2021/05/21 06:01:17;;;;;;;;;;;;;;;8.84;100.00;97673.94;5049640;28;20107;-76
2021/05/21 06:03:44;;;;;;;;;;;;;;;8.80;100.00;97667.66;5049085;28;19924;-76
2021/05/21 06:06:13;;;;;;;;;;;;;;;8.83;100.00;97658.41;5050420;28;20343;-75
2021/05/21 06:08:52;;;;;;;;;;;;;;;8.83;100.00;97652.84;5051097;28;19986;-76
2021/05/21 06:11:21;;;;;;;;;;;;;;;8.87;100.00;97658.31;5048971;28;20584;-76
2021/05/21 06:14:02;;;;;;;;;;;;;;;8.91;100.00;97703.53;5069374;27;19958;-77
2021/05/21 06:16:29;;;;;;;;;;;;;;;8.88;100.00;97685.72;5064200;28;19934;-78
2021/05/21 06:18:57;;;;;;;;;;;;;;;8.89;100.00;97676.13;5064693;28;19924;-77
2021/05/21 06:21:24;;;;;;;;;;;;;;;8.92;100.00;97680.81;5063550;28;19935;-77
2021/05/21 06:23:51;;;;;;;;;;;;;;;8.94;100.00;97675.59;5064200;28;20338;-78
2021/05/21 06:28:51;;;;;;;;;;;;;;;8.96;100.00;97659.22;5067508;28;20429;-81
2021/05/21 06:31:19;;;;;;;;;;;;;;;8.97;100.00;97655.19;5068202;28;20425;-81
2021/05/21 06:33:46;;;;;;;;;;;;;;;8.96;100.00;97652.84;5069195;28;20014;-82
2021/05/21 06:36:13;;;;;;;;;;;;;;;8.94;100.00;97649.72;5068310;28;19924;-81
2021/05/21 06:38:40;;;;;;;;;;;;;;;8.97;100.00;97659.97;5069506;28;20406;-81
2021/05/21 06:41:08;;;;;;;;;;;;;;;8.93;100.00;97646.19;5069535;28;19924;-81
2021/05/21 06:43:35;;;;;;;;;;;;;;;8.90;100.00;97647.06;5059201;28;19925;-90
2021/05/21 06:46:02;;;;;;;;;;;;;;;8.96;100.00;97664.00;5043861;28;19948;-83
2021/05/21 06:48:31;;;;;;;;;;;;;;;8.92;100.00;97655.75;5062217;28;20303;-82
2021/05/21 06:50:59;;;;;;;;;;;;;;;9.00;100.00;97639.59;5060850;28;19959;-83
2021/05/21 06:53:52;;;;;;;;;;;;;;;8.97;100.00;97663.56;5057074;28;19925;-82
2021/05/21 06:56:19;;;;;;;;;;;;;;;8.98;100.00;97644.84;5060805;28;19932;-83
2021/05/21 06:58:46;;;;;;;;;;;;;;;9.04;100.00;97641.03;5054623;28;19925;-82
2021/05/21 07:01:13;;;;;;;;;;;;;;;9.10;100.00;97628.09;5060999;28;20245;-80
2021/05/21 07:03:40;;;;;;;;;;;;;;;9.19;100.00;97633.75;5063396;28;20381;-83
2021/05/21 07:06:07;;;;;;;;;;;;;;;9.24;100.00;97623.28;5063651;28;20288;-81
2021/05/21 07:08:34;;;;;;;;;;;;;;;9.28;100.00;97623.94;5096089;28;20435;-82
2021/05/21 07:11:01;;;;;;;;;;;;;;;9.39;100.00;97625.13;5064558;28;19932;-82
2021/05/21 07:13:29;;;;;;;;;;;;;;;9.48;100.00;97616.84;5047548;28;19932;-83
2021/05/21 07:15:56;;;;;;;;;;;;;;;9.42;100.00;97598.38;5055995;28;19939;-81
2021/05/21 07:18:25;;;;;;;;;;;;;;;9.50;100.00;97580.94;5059540;28;19925;-81
2021/05/21 07:20:52;;;;;;;;;;;;;;;9.48;100.00;97582.66;5077957;28;19936;-82
2021/05/21 07:23:19;;;;;;;;;;;;;;;9.47;100.00;97592.22;5063670;28;20388;-82
2021/05/21 07:25:47;;;;;;;;;;;;;;;9.48;100.00;97582.66;5048917;28;19933;-82
2021/05/21 07:28:14;;;;;;;;;;;;;;;9.46;100.00;97566.38;5049169;28;19931;-81
2021/05/21 07:30:41;;;;;;;;;;;;;;;9.33;100.00;97562.06;5050870;28;19931;-80
2021/05/21 07:33:08;;;;;;;;;;;;;;;9.36;100.00;97553.56;5048073;28;19979;-81
2021/05/21 07:35:35;;;;;;;;;;;;;;;9.42;100.00;97551.00;5049607;28;19947;-82
2021/05/21 07:38:09;;;;;;;;;;;;;;;9.44;100.00;97549.31;5049922;28;20318;-80
2021/05/21 07:40:37;;;;;;;;;;;;;;;9.47;100.00;97550.41;5064819;28;20533;-81
2021/05/21 07:43:14;;;;;;;;;;;;;;;9.42;100.00;97545.44;5036962;28;19932;-82
2021/05/21 07:45:41;;;;;;;;;;;;;;;9.48;100.00;97538.81;5049465;28;19931;-83
2021/05/21 07:48:08;;;;;;;;;;;;;;;9.54;100.00;97536.22;5049256;28;20345;-82
2021/05/21 07:50:38;;;;;;;;;;;;;;;9.56;100.00;97533.78;5049562;28;19925;-83
2021/05/21 07:53:06;;;;;;;;;;;;;;;9.70;100.00;97541.59;5048742;28;20015;-81
2021/05/21 07:55:34;;;;;;;;;;;;;;;9.67;100.00;97512.63;5049746;28;19929;-81
2021/05/21 07:58:02;;;;;;;;;;;;;;;9.68;100.00;97527.34;5048377;28;19924;-81
2021/05/21 08:00:29;;;;;;;;;;;;;;;9.64;100.00;97535.06;5081541;28;19974;-85
2021/05/21 08:02:56;;;;;;;;;;;;;;;9.64;100.00;97535.06;5049731;28;19975;-80
2021/05/21 08:05:23;;;;;;;;;;;;;;;9.64;100.00;97502.38;5064468;28;20191;-83
2021/05/21 08:07:53;;;;;;;;;;;;;;;9.65;100.00;97500.38;5051311;28;20016;-83
2021/05/21 08:10:20;;;;;;;;;;;;;;;9.77;100.00;97510.69;5051027;28;19932;-84
2021/05/21 08:12:47;;;;;;;;;;;;;;;9.68;100.00;97497.44;5050581;28;20456;-84
2021/05/21 08:15:15;;;;;;;;;;;;;;;9.70;100.00;97502.56;5048451;28;19924;-83
2021/05/21 08:17:42;;;;;;;;;;;;;;;9.65;100.00;97480.88;5052121;28;20388;-83
2021/05/21 08:20:11;;;;;;;;;;;;;;;9.65;100.00;97476.03;5050542;28;19935;-84
2021/05/21 08:22:38;;;;;;;;;;;;;;;9.66;100.00;97474.03;5051340;28;20409;-83
2021/05/21 08:25:06;;;;;;;;;;;;;;;9.70;100.00;97471.88;5051980;28;19924;-83
2021/05/21 08:27:33;;;;;;;;;;;;;;;9.72;100.00;97466.63;5051234;28;19929;-84
2021/05/21 08:30:01;;;;;;;;;;;;;;;9.70;100.00;97458.72;5054317;28;19925;-84
2021/05/21 08:32:28;;;;;;;;;;;;;;;9.67;100.00;97450.50;5087043;28;19925;-84
2021/05/21 08:34:55;;;;;;;;;;;;;;;9.71;100.00;97465.09;5055233;28;19932;-83
2021/05/21 08:37:22;;;;;;;;;;;;;;;9.71;100.00;97442.78;5083873;28;19971;-84
2021/05/21 08:39:49;;;;;;;;;;;;;;;9.74;100.00;97416.78;5049125;28;19987;-83
2021/05/21 08:42:17;;;;;;;;;;;;;;;9.74;100.00;97428.69;5049950;28;19978;-83
2021/05/21 08:44:49;;;;;;;;;;;;;;;9.72;100.00;97422.03;5045663;28;19929;-84
2021/05/21 08:47:16;;;;;;;;;;;;;;;9.71;100.00;97421.22;5068912;28;20483;-83
2021/05/21 08:49:44;;;;;;;;;;;;;;;9.75;100.00;97423.91;5033284;28;19960;-84
2021/05/21 08:52:11;;;;;;;;;;;;;;;9.86;100.00;97424.28;5067674;28;19987;-83
2021/05/21 08:54:41;;;;;;;;;;;;;;;9.88;100.00;97419.00;5047649;28;19924;-83
2021/05/21 08:57:09;;;;;;;;;;;;;;;9.95;100.00;97422.28;5051870;28;20043;-84
2021/05/21 08:59:37;;;;;;;;;;;;;;;10.02;100.00;97426.81;5038314;28;19925;-84
2021/05/21 09:02:06;;;;;;;;;;;;;;;10.07;100.00;97427.00;5040997;28;20273;-82
2021/05/21 09:04:46;;;;;;;;;;;;;;;10.03;100.00;97428.34;5046691;28;19924;-83
2021/05/21 09:07:20;;;;;;;;;;;;;;;10.10;100.00;97434.47;5063342;28;19932;-82
2021/05/21 09:09:47;;;;;;;;;;;;;;;10.17;100.00;97430.63;5049048;28;19935;-81
2021/05/21 09:12:15;;;;;;;;;;;;;;;10.12;100.00;97425.63;5046702;28;19956;-82
2021/05/21 09:15:00;;;;;;;;;;;;;;;10.08;100.00;97419.41;5045738;28;19995;-82
2021/05/21 09:17:28;;;;;;;;;;;;;;;10.21;100.00;97412.50;5050046;28;19932;-85
2021/05/21 09:19:55;;;;;;;;;;;;;;;10.47;100.00;97429.78;5065737;28;19932;-81
2021/05/21 09:22:33;;;;;;;;;;;;;;;10.83;100.00;97438.22;5053432;28;19933;-82
2021/05/21 09:25:01;;;;;;;;;;;;;;;11.01;100.00;97429.09;5052430;28;19925;-81
2021/05/21 09:27:28;;;;;;;;;;;;;;;11.00;100.00;97433.88;5053361;28;19925;-81
2021/05/21 09:29:57;;;;;;;;;;;;;;;11.08;100.00;97396.03;5056204;28;19925;-79
2021/05/21 09:32:26;;;;;;;;;;;;;;;11.47;100.00;97349.50;5051946;28;19928;-79
2021/05/21 09:35:05;;;;;;;;;;;;;;;11.53;100.00;97328.03;5053926;28;19929;-83
2021/05/21 09:37:34;;;;;;;;;;;;;;;11.40;100.00;97289.13;5052546;28;20277;-82
2021/05/21 09:40:06;;;;;;;;;;;;;;;11.47;100.00;97299.97;5054989;28;20371;-81
2021/05/21 09:42:44;;;;;;;;;;;;;;;11.55;100.00;97266.84;5052726;28;20285;-82
2021/05/21 09:45:31;;;;;;;;;;;;;;;11.57;100.00;97247.56;5052918;28;19932;-81
2021/05/21 09:47:58;;;;;;;;;;;;;;;11.61;100.00;97024.41;5055030;28;19925;-80
2021/05/21 09:50:29;;;;;;;;;;;;;;;11.46;100.00;96985.22;5033897;28;19925;-80
2021/05/21 09:53:07;;;;;;;;;;;;;;;11.38;100.00;96944.91;5052162;28;20023;-81
2021/05/21 09:55:38;;;;;;;;;;;;;;;11.33;100.00;96925.25;5043899;28;20012;-79
2021/05/21 09:58:06;;;;;;;;;;;;;;;11.34;100.00;96910.00;5052250;28;20051;-80
2021/05/21 10:00:33;;;;;;;;;;;;;;;11.23;100.00;96899.38;5053418;28;20036;-81
2021/05/21 10:03:01;;;;;;;;;;;;;;;11.06;100.00;96875.16;5053532;28;19928;-79
2021/05/21 10:05:33;;;;;;;;;;;;;;;10.91;100.00;96872.31;5053545;28;19938;-80
2021/05/21 10:08:00;;;;;;;;;;;;;;;10.73;100.00;96855.72;5048956;28;20006;-81
2021/05/21 10:10:27;;;;;;;;;;;;;;;10.59;100.00;96845.25;5052234;28;19929;-85
2021/05/21 10:12:55;;;;;;;;;;;;;;;10.70;100.00;96837.91;5049183;28;19929;-82
2021/05/21 10:15:22;;;;;;;;;;;;;;;10.78;100.00;96843.88;5064719;28;19932;-82
2021/05/21 10:17:50;;;;;;;;;;;;;;;11.03;100.00;96846.16;5050575;28;20040;-82
2021/05/21 10:20:19;;;;;;;;;;;;;;;11.24;100.00;96850.59;5085439;28;19928;-82
2021/05/21 10:22:46;;;;;;;;;;;;;;;11.33;100.00;96836.53;5053711;28;19931;-83
2021/05/21 10:25:19;;;;;;;;;;;;;;;11.42;100.00;96833.63;5053654;28;19928;-82
2021/05/21 10:27:49;;;;;;;;;;;;;;;11.25;100.00;96831.81;5053671;28;19928;-82
2021/05/21 10:30:20;;;;;;;;;;;;;;;11.10;100.00;96817.84;5048008;28;19999;-83
2021/05/21 10:32:47;;;;;;;;;;;;;;;11.01;100.00;96815.13;5049719;28;19975;-81
2021/05/21 10:35:19;;;;;;;;;;;;;;;10.79;100.00;96811.91;5048710;28;19929;-81
2021/05/21 10:38:19;;;;;;;;;;;;;;;10.79;100.00;96798.72;5048858;28;19932;-80
2021/05/21 10:41:15;;;;;;;;;;;;;;;10.94;100.00;96795.94;5040756;28;19925;-82
2021/05/21 10:43:57;;;;;;;;;;;;;;;10.95;100.00;96814.22;5030681;28;19975;-78
2021/05/21 10:46:42;;;;;;;;;;;;;;;11.02;100.00;96799.13;5032881;28;19925;-82
2021/05/21 10:49:19;;;;;;;;;;;;;;;11.13;100.00;96811.28;5048699;28;19924;-82
2021/05/21 10:51:50;;;;;;;;;;;;;;;11.37;100.00;96798.00;5049164;28;19925;-84
2021/05/21 10:54:26;;;;;;;;;;;;;;;11.45;100.00;96793.53;5048577;28;19932;-86
2021/05/21 10:56:57;;;;;;;;;;;;;;;11.66;100.00;96791.63;5042162;28;19929;-85
2021/05/21 10:59:43;;;;;;;;;;;;;;;11.85;100.00;96784.53;5034652;28;20295;-84
2021/05/21 11:02:13;;;;;;;;;;;;;;;11.72;100.00;96756.13;5089214;28;19948;-84
2021/05/21 11:04:40;;;;;;;;;;;;;;;11.80;100.00;96757.25;5054988;28;19924;-81
2021/05/21 11:07:07;;;;;;;;;;;;;;;11.72;100.00;96737.28;5055246;28;19943;-81
2021/05/21 11:09:44;;;;;;;;;;;;;;;11.63;100.00;96715.03;5053639;28;19933;-81
2021/05/21 11:12:15;;;;;;;;;;;;;;;11.68;100.00;96714.34;5055026;28;19932;-85
2021/05/21 11:14:44;;;;;;;;;;;;;;;11.70;100.00;96691.50;5055568;28;19925;-84
2021/05/21 11:17:22;;;;;;;;;;;;;;;11.74;100.00;96667.66;5056981;28;19975;-82
2021/05/21 11:19:59;;;;;;;;;;;;;;;11.98;100.00;96665.41;5056701;28;20010;-86
2021/05/21 11:22:29;;;;;;;;;;;;;;;12.27;100.00;96651.28;5056585;28;19938;-83
2021/05/21 11:25:01;;;;;;;;;;;;;;;12.45;100.00;96642.56;5057023;28;20383;-83
2021/05/21 11:27:29;;;;;;;;;;;;;;;12.48;100.00;96621.97;5056404;28;19924;-83
2021/05/21 11:29:57;;;;;;;;;;;;;;;12.35;100.00;96604.00;5054345;28;19977;-79
2021/05/21 11:32:25;;;;;;;;;;;;;;;12.38;100.00;96595.41;5050126;28;19982;-86
2021/05/21 11:34:53;;;;;;;;;;;;;;;12.34;100.00;96580.84;5050411;28;19925;-85
2021/05/21 11:37:25;;;;;;;;;;;;;;;12.51;100.00;96570.56;5056889;28;20376;-85
2021/05/21 11:39:54;;;;;;;;;;;;;;;12.70;100.00;96559.78;5055368;28;19925;-85
2021/05/21 11:42:23;;;;;;;;;;;;;;;12.64;100.00;96540.13;5054888;28;20348;-84
2021/05/21 11:44:55;;;;;;;;;;;;;;;12.63;100.00;96535.03;5038632;28;20031;-84
2021/05/21 11:47:23;;;;;;;;;;;;;;;12.56;100.00;96499.84;5051418;28;19932;-84
2021/05/21 11:49:52;;;;;;;;;;;;;;;12.45;100.00;96482.16;5051483;28;19924;-84
2021/05/21 11:52:20;;;;;;;;;;;;;;;12.53;100.00;96231.22;5052593;28;19956;-85
2021/05/21 11:54:47;;;;;;;;;;;;;;;12.41;100.00;96219.22;5054944;28;19925;-84
2021/05/21 11:57:18;;;;;;;;;;;;;;;12.24;100.00;96223.19;5053654;28;20014;-84
2021/05/21 11:59:45;;;;;;;;;;;;;;;12.56;100.00;96221.81;5053808;28;19925;-84
2021/05/21 12:02:15;;;;;;;;;;;;;;;12.58;100.00;96220.06;5053158;28;19929;-85
2021/05/21 12:04:44;;;;;;;;;;;;;;;12.55;100.00;96221.06;5054737;28;20404;-84
2021/05/21 12:07:22;;;;;;;;;;;;;;;12.60;100.00;96213.94;5049930;28;19929;-84
2021/05/21 12:09:53;;;;;;;;;;;;;;;12.46;100.00;96210.06;5051137;28;19936;-83
2021/05/21 12:12:22;;;;;;;;;;;;;;;12.31;100.00;96191.94;5086526;28;19924;-84
2021/05/21 12:14:49;;;;;;;;;;;;;;;12.29;100.00;96206.44;5052963;28;19924;-84
2021/05/21 12:17:16;;;;;;;;;;;;;;;12.29;100.00;96195.25;5069765;28;19925;-84
2021/05/21 12:19:43;;;;;;;;;;;;;;;12.27;100.00;96203.38;5053284;28;20007;-83
2021/05/21 12:22:10;;;;;;;;;;;;;;;12.08;100.00;96196.69;5053177;28;19931;-84
2021/05/21 12:24:41;;;;;;;;;;;;;;;12.13;100.00;96197.97;5053189;28;19931;-84
2021/05/21 12:27:09;;;;;;;;;;;;;;;12.04;100.00;96206.59;5052969;28;19932;-84
2021/05/21 12:29:37;;;;;;;;;;;;;;;12.12;100.00;96216.03;5052967;28;20387;-84
2021/05/21 12:32:05;;;;;;;;;;;;;;;12.09;100.00;96209.41;5085912;28;19933;-84
2021/05/21 12:34:32;;;;;;;;;;;;;;;12.02;100.00;96207.09;5036351;28;19932;-84
2021/05/21 12:36:59;;;;;;;;;;;;;;;11.83;100.00;96208.75;5036191;28;19975;-84
2021/05/21 12:39:30;;;;;;;;;;;;;;;11.81;100.00;96205.72;5053948;28;19935;-83
2021/05/21 12:41:57;;;;;;;;;;;;;;;11.65;100.00;96209.16;5053984;28;19931;-84
2021/05/21 12:44:34;;;;;;;;;;;;;;;11.58;100.00;96215.19;5036016;28;20011;-84
2021/05/21 12:47:13;;;;;;;;;;;;;;;11.72;100.00;96208.66;5052815;28;19947;-84
2021/05/21 12:49:44;;;;;;;;;;;;;;;11.66;100.00;96199.47;5053760;28;19952;-83
2021/05/21 12:52:11;;;;;;;;;;;;;;;11.57;100.00;96208.03;5052591;28;20296;-83
2021/05/21 12:54:46;;;;;;;;;;;;;;;11.54;100.00;96213.88;5052124;28;19951;-83